Time;durP1;ratioP1;P1;durP2;ratioP2;P2;SDS_P1;SDS_P2;PMS_P1;PMS_P2;Temp;Humidity;BMP_temperature;BMP_pressure;BME280_temperature;BME280_humidity;BME280_pressure;Samples;Min_cycle;Max_cycle;Signal;HPM_P1;HPM_P2
2023/07/30 00:02:35;;;;;;;12.32;4.05;;;;;;;20.11;72.86;98002.44;5080963;28;20128;-77
2023/07/30 00:05:19;;;;;;;17.02;5.05;;;;;;;19.93;73.52;98003.16;5074553;28;20673;-77
2023/07/30 00:08:03;;;;;;;19.65;5.07;;;;;;;19.63;74.11;98000.47;5079514;28;20528;-77
2023/07/30 00:10:47;;;;;;;10.88;3.60;;;;;;;20.05;73.43;97981.47;5077200;28;20117;-77
2023/07/30 00:13:31;;;;;;;21.38;4.97;;;;;;;19.96;73.67;97994.59;5078072;28;20063;-77
2023/07/30 00:16:15;;;;;;;22.05;5.25;;;;;;;19.80;74.40;97989.38;5078404;28;20038;-76
2023/07/30 00:18:59;;;;;;;17.75;4.63;;;;;;;19.64;74.85;97991.41;5080473;28;20389;-77
2023/07/30 00:21:46;;;;;;;13.88;4.20;;;;;;;19.48;75.10;97989.94;5074546;28;20093;-77
2023/07/30 00:24:30;;;;;;;17.38;4.50;;;;;;;19.39;75.44;97989.75;5078628;28;20505;-79
2023/07/30 00:27:14;;;;;;;10.88;4.00;;;;;;;19.33;76.51;97991.66;5077371;28;20551;-76
2023/07/30 00:29:58;;;;;;;17.08;5.22;;;;;;;19.38;76.48;97990.81;5082994;28;20079;-76
2023/07/30 00:32:43;;;;;;;13.13;4.63;;;;;;;19.34;76.83;97989.78;5074938;28;20085;-76
2023/07/30 00:35:28;;;;;;;20.88;4.85;;;;;;;19.34;77.25;97989.78;5074746;28;20398;-76
2023/07/30 00:38:12;;;;;;;12.15;4.43;;;;;;;19.30;77.47;97991.44;5076141;28;20051;-76
2023/07/30 00:40:56;;;;;;;13.60;4.20;;;;;;;19.53;77.22;97995.22;5080308;28;20105;-76
2023/07/30 00:43:40;;;;;;;13.93;4.47;;;;;;;19.49;77.23;97991.53;5074536;28;20501;-76
2023/07/30 00:46:24;;;;;;;16.10;4.78;;;;;;;19.50;77.20;97988.59;5080742;28;20071;-76
2023/07/30 00:49:09;;;;;;;16.02;5.10;;;;;;;19.50;77.18;97982.47;5079177;28;20086;-75
2023/07/30 00:51:56;;;;;;;16.50;4.78;;;;;;;19.31;78.03;97985.81;5072637;28;20042;-77
2023/07/30 00:54:40;;;;;;;15.30;4.40;;;;;;;19.17;78.59;97982.22;5075525;28;20125;-76
2023/07/30 00:57:25;;;;;;;18.65;4.80;;;;;;;19.30;78.31;97975.47;5079977;28;20093;-78
2023/07/30 01:00:11;;;;;;;15.55;4.43;;;;;;;19.15;79.04;97974.50;5077272;28;20046;-76
2023/07/30 01:02:55;;;;;;;17.38;4.75;;;;;;;19.28;78.98;97978.41;5075314;28;20067;-76
2023/07/30 01:05:39;;;;;;;15.23;4.30;;;;;;;19.58;78.75;97975.75;5083198;28;20529;-76
2023/07/30 01:08:24;;;;;;;17.20;4.90;;;;;;;19.62;78.32;97982.09;5079765;28;20060;-76
2023/07/30 01:11:09;;;;;;;14.25;4.35;;;;;;;19.65;78.22;97970.91;5077449;28;20075;-79
2023/07/30 01:13:54;;;;;;;13.30;4.45;;;;;;;19.59;78.74;97974.69;5076747;28;20051;-76
2023/07/30 01:16:40;;;;;;;22.58;4.97;;;;;;;19.44;79.22;97965.75;5080175;28;20043;-76
2023/07/30 01:19:24;;;;;;;13.85;4.28;;;;;;;19.50;79.13;97964.66;5083256;28;20074;-76
2023/07/30 01:22:08;;;;;;;17.85;4.70;;;;;;;19.35;80.27;97972.75;5084110;28;20079;-78
2023/07/30 01:24:52;;;;;;;17.42;3.80;;;;;;;19.53;80.01;97974.75;5083109;28;20043;-79
2023/07/30 01:27:43;;;;;;;14.73;4.78;;;;;;;19.54;80.20;97981.66;5079018;28;20066;-78
2023/07/30 01:30:37;;;;;;;21.23;4.72;;;;;;;19.54;80.65;97984.31;5079796;28;20560;-78
2023/07/30 01:33:21;;;;;;;;;;;;;;;19.70;80.31;97987.63;5076222;28;20031;-78
2023/07/30 01:36:08;;;;;;;11.98;3.80;;;;;;;19.66;80.67;97980.50;5079341;28;19974;-78
2023/07/30 01:38:53;;;;;;;13.27;3.72;;;;;;;19.47;81.24;97969.72;5076043;28;20059;-79
2023/07/30 01:41:37;;;;;;;11.02;4.40;;;;;;;19.47;81.32;97973.19;5079801;28;20397;-78
2023/07/30 01:44:21;;;;;;;17.30;4.15;;;;;;;19.27;82.29;97972.28;5081534;28;20491;-79
2023/07/30 01:47:05;;;;;;;18.60;4.47;;;;;;;19.52;82.19;97973.16;5081979;28;20528;-79
2023/07/30 01:49:49;;;;;;;20.50;5.13;;;;;;;19.53;82.64;97965.94;5078991;28;20055;-78
2023/07/30 01:52:34;;;;;;;16.83;4.38;;;;;;;19.65;82.48;97965.56;5080576;28;20043;-78
2023/07/30 01:55:18;;;;;;;16.10;4.72;;;;;;;19.65;82.35;97968.22;5082542;28;20044;-78
2023/07/30 01:58:02;;;;;;;12.88;4.10;;;;;;;19.65;82.69;97960.25;5084193;28;20070;-78
2023/07/30 02:00:46;;;;;;;20.88;4.55;;;;;;;19.64;82.58;97964.78;5079319;28;20394;-78
2023/07/30 02:03:31;;;;;;;15.85;4.35;;;;;;;19.89;82.36;97970.16;5075745;28;20098;-78
2023/07/30 02:06:14;;;;;;;17.58;4.03;;;;;;;19.99;82.14;97964.72;5082920;28;20499;-79
2023/07/30 02:08:58;;;;;;;16.98;3.90;;;;;;;20.15;81.25;97964.56;5078496;28;20063;-78
2023/07/30 02:11:42;;;;;;;12.10;3.90;;;;;;;20.09;80.94;97964.63;5079177;28;20500;-78
2023/07/30 02:14:26;;;;;;;12.05;3.40;;;;;;;20.28;80.59;97955.91;5079875;28;20101;-78
2023/07/30 02:17:10;;;;;;;14.20;3.17;;;;;;;20.33;79.97;97958.50;5080450;28;20054;-78
2023/07/30 02:19:54;;;;;;;9.88;3.63;;;;;;;20.27;79.43;97948.97;5084925;28;20463;-79
2023/07/30 02:22:38;;;;;;;11.27;2.90;;;;;;;20.00;79.59;97957.56;5081716;28;20055;-79
2023/07/30 02:25:22;;;;;;;9.52;3.05;;;;;;;19.87;79.98;97962.44;5073401;28;20192;-79
2023/07/30 02:28:05;;;;;;;19.45;3.88;;;;;;;20.14;79.37;97974.41;5078306;28;20505;-79
2023/07/30 02:30:49;;;;;;;8.25;2.75;;;;;;;20.32;78.98;97967.56;5082651;28;20042;-78
2023/07/30 02:33:33;;;;;;;9.40;3.03;;;;;;;20.10;79.18;97954.75;5080526;28;20039;-79
2023/07/30 02:36:17;;;;;;;12.75;3.33;;;;;;;20.16;80.01;97968.81;5083769;28;20050;-79
2023/07/30 02:39:01;;;;;;;12.68;3.75;;;;;;;20.25;79.91;97977.78;5073316;28;20104;-78
2023/07/30 02:41:45;;;;;;;14.60;4.30;;;;;;;20.19;79.72;97974.38;5076855;28;20089;-78
2023/07/30 02:44:29;;;;;;;12.35;3.30;;;;;;;20.14;79.84;97966.44;5082288;28;20043;-78
2023/07/30 02:47:13;;;;;;;16.67;3.47;;;;;;;20.13;80.15;97959.50;5081799;28;20509;-78
2023/07/30 02:49:57;;;;;;;8.95;3.30;;;;;;;20.28;80.26;97955.91;5080984;28;20035;-78
2023/07/30 02:52:41;;;;;;;11.50;3.47;;;;;;;20.14;80.52;97950.44;5078894;28;20046;-78
2023/07/30 02:55:25;;;;;;;14.50;3.92;;;;;;;20.33;80.14;97947.84;5076187;28;20081;-79
2023/07/30 02:58:09;;;;;;;14.20;3.70;;;;;;;20.03;80.90;97943.66;5076265;28;20096;-79
2023/07/30 03:00:53;;;;;;;18.02;3.97;;;;;;;20.08;80.52;97952.41;5079043;28;20047;-78
2023/07/30 03:03:37;;;;;;;20.40;4.07;;;;;;;19.76;81.46;97953.75;5077418;28;20047;-79
2023/07/30 03:06:21;;;;;;;13.52;3.25;;;;;;;19.84;81.36;97953.13;5075902;28;20178;-79
2023/07/30 03:09:05;;;;;;;8.98;3.17;;;;;;;19.84;80.93;97947.03;5078173;28;20051;-78
2023/07/30 03:11:49;;;;;;;16.33;4.22;;;;;;;19.48;81.87;97956.16;5074344;28;20066;-78
2023/07/30 03:14:34;;;;;;;17.65;4.22;;;;;;;19.61;81.79;97953.91;5079259;28;20093;-79
2023/07/30 03:17:17;;;;;;;10.20;3.63;;;;;;;19.55;81.50;97953.97;5077751;28;20059;-78
2023/07/30 03:20:01;;;;;;;8.02;3.08;;;;;;;19.73;81.31;97961.50;5074204;28;20079;-78
2023/07/30 03:22:45;;;;;;;14.15;3.70;;;;;;;19.84;80.34;97963.78;5078741;28;20036;-79
2023/07/30 03:25:29;;;;;;;8.93;3.55;;;;;;;19.80;80.68;97960.09;5073455;28;20085;-78
2023/07/30 03:28:13;;;;;;;9.02;3.53;;;;;;;19.82;80.71;97960.59;5078124;28;20056;-78
2023/07/30 03:30:57;;;;;;;11.90;3.38;;;;;;;20.01;80.37;97957.25;5075498;28;20105;-79
2023/07/30 03:33:45;;;;;;;14.50;3.80;;;;;;;19.81;81.09;97953.69;5079242;28;20088;-79
2023/07/30 03:36:29;;;;;;;11.55;3.58;;;;;;;19.88;81.04;97964.03;5077069;28;20193;-79
2023/07/30 03:39:13;;;;;;;12.77;3.22;;;;;;;19.64;81.37;97969.31;5083556;28;20569;-79
2023/07/30 03:41:57;;;;;;;14.32;3.58;;;;;;;19.76;80.92;97956.41;5078329;28;20046;-78
2023/07/30 03:44:41;;;;;;;11.35;3.22;;;;;;;19.89;80.26;97980.81;5074847;28;20071;-78
2023/07/30 03:47:25;;;;;;;11.48;3.72;;;;;;;19.66;80.84;97970.63;5076281;28;20039;-79
2023/07/30 03:50:09;;;;;;;9.93;2.90;;;;;;;20.01;80.31;97978.56;5075166;28;20174;-80
2023/07/30 03:52:53;;;;;;;10.25;2.55;;;;;;;19.93;80.06;97971.19;5077050;28;20051;-78
2023/07/30 03:55:37;;;;;;;10.43;3.00;;;;;;;19.94;79.54;97972.78;5079075;28;20117;-78
2023/07/30 03:58:21;;;;;;;11.35;2.65;;;;;;;20.16;79.38;97974.97;5076188;28;20509;-79
2023/07/30 04:01:06;;;;;;;9.07;2.70;;;;;;;19.76;80.39;97977.72;5078087;28;20127;-79
2023/07/30 04:03:50;;;;;;;9.07;2.50;;;;;;;19.63;80.56;97989.81;5081485;28;20124;-78
2023/07/30 04:06:34;;;;;;;9.35;2.50;;;;;;;19.78;80.21;97983.56;5079445;28;20173;-78
2023/07/30 04:09:18;;;;;;;;;;;;;;;19.63;80.58;97989.00;5080253;28;20097;-76
2023/07/30 04:12:03;;;;;;;8.07;2.20;;;;;;;19.52;80.62;97978.47;5076440;28;20307;-79
2023/07/30 04:14:47;;;;;;;10.60;2.58;;;;;;;19.40;80.96;97980.69;5081106;28;20036;-79
2023/07/30 04:17:31;;;;;;;9.70;2.63;;;;;;;19.47;81.06;97986.50;5072204;28;20043;-79
2023/07/30 04:20:17;;;;;;;10.32;2.88;;;;;;;19.61;81.04;97985.84;5077772;28;20389;-79
2023/07/30 04:23:02;;;;;;;6.93;2.40;;;;;;;19.67;80.81;97985.53;5079135;28;20218;-78
2023/07/30 04:25:48;;;;;;;8.40;2.83;;;;;;;19.92;79.88;97990.91;5078858;28;20093;-77
2023/07/30 04:28:32;;;;;;;8.18;2.35;;;;;;;19.94;80.08;97978.88;5080246;28;20043;-78
2023/07/30 04:31:16;;;;;;;6.32;2.17;;;;;;;19.90;80.05;97987.72;5075818;28;20115;-79
2023/07/30 04:34:00;;;;;;;11.73;2.80;;;;;;;19.82;80.03;98003.22;5080714;28;20043;-78
2023/07/30 04:36:43;;;;;;;7.38;2.70;;;;;;;19.84;80.29;97994.97;5078977;28;20106;-79
2023/07/30 04:39:29;;;;;;;6.10;2.28;;;;;;;19.95;80.44;98001.00;5080100;28;20047;-78
2023/07/30 04:42:15;;;;;;;8.00;3.08;;;;;;;19.90;79.99;97998.38;5079542;28;20047;-79
2023/07/30 04:44:59;;;;;;;8.05;2.28;;;;;;;20.15;79.68;98000.00;5077493;28;20526;-79
2023/07/30 04:47:43;;;;;;;10.32;2.53;;;;;;;19.88;79.92;98003.19;5080282;28;20075;-79
2023/07/30 04:50:27;;;;;;;10.52;2.30;;;;;;;19.98;79.56;97995.09;5084032;28;20136;-78
2023/07/30 04:53:11;;;;;;;5.38;2.08;;;;;;;20.16;78.84;97995.47;5078334;28;20119;-79
2023/07/30 04:55:59;;;;;;;8.15;2.05;;;;;;;20.03;79.01;98002.25;5078264;28;20402;-79
2023/07/30 04:58:43;;;;;;;8.38;2.67;;;;;;;20.11;79.26;98006.97;5085087;28;20038;-78
2023/07/30 05:01:27;;;;;;;7.43;2.08;;;;;;;19.91;79.07;98011.41;5080892;28;20059;-77
2023/07/30 05:04:11;;;;;;;9.07;2.30;;;;;;;20.21;78.74;98009.53;5079302;28;20043;-77
2023/07/30 05:06:55;;;;;;;5.90;1.77;;;;;;;20.20;78.09;98009.78;5086800;28;20195;-77
2023/07/30 05:09:39;;;;;;;5.93;2.35;;;;;;;20.08;78.49;98013.66;5086020;28;20180;-76
2023/07/30 05:12:23;;;;;;;7.80;2.10;;;;;;;19.97;78.54;98012.16;5080635;28;20130;-77
2023/07/30 05:15:07;;;;;;;8.15;2.10;;;;;;;20.00;78.22;98019.59;5081821;28;20046;-77
2023/07/30 05:17:51;;;;;;;7.28;2.20;;;;;;;19.88;78.86;98027.16;5083530;28;20635;-77
2023/07/30 05:20:35;;;;;;;4.60;2.53;;;;;;;20.11;78.47;98025.59;5081509;28;20035;-77
2023/07/30 05:23:20;;;;;;;5.50;1.70;;;;;;;19.70;79.02;98026.78;5081854;28;20092;-76
2023/07/30 05:26:04;;;;;;;7.40;2.75;;;;;;;19.83;78.90;98031.44;5081846;28;20059;-76
2023/07/30 05:28:48;;;;;;;6.88;2.20;;;;;;;20.27;78.13;98031.59;5079319;28;20082;-76
2023/07/30 05:31:32;;;;;;;6.40;2.05;;;;;;;20.31;78.02;98029.94;5078804;28;20494;-77
2023/07/30 05:34:16;;;;;;;9.07;2.38;;;;;;;20.64;76.80;98027.44;5075601;28;20027;-76
2023/07/30 05:37:01;;;;;;;13.73;2.88;;;;;;;20.16;77.56;98017.59;5075050;28;20183;-77
2023/07/30 05:39:45;;;;;;;7.05;2.03;;;;;;;20.72;76.43;98014.53;5078526;28;20530;-77
2023/07/30 05:42:28;;;;;;;7.78;2.47;;;;;;;20.90;76.10;98019.13;5082501;28;20063;-76
2023/07/30 05:45:13;;;;;;;7.45;1.90;;;;;;;21.05;75.46;98020.78;5082740;28;20509;-76
2023/07/30 05:47:57;;;;;;;7.18;2.33;;;;;;;21.00;75.15;98012.03;5074357;28;20040;-76
2023/07/30 05:50:41;;;;;;;7.10;2.35;;;;;;;21.09;75.16;98010.31;5075969;28;20105;-77
2023/07/30 05:53:25;;;;;;;6.78;2.35;;;;;;;20.72;75.67;98036.63;5078732;28;20038;-77
2023/07/30 05:56:10;;;;;;;7.15;2.45;;;;;;;20.72;75.98;98035.84;5072170;28;20092;-77
2023/07/30 05:58:54;;;;;;;8.70;2.92;;;;;;;20.49;76.21;98038.28;5078396;28;20055;-77
2023/07/30 06:01:38;;;;;;;10.18;2.50;;;;;;;20.62;76.44;98034.88;5077079;28;20031;-77
2023/07/30 06:04:22;;;;;;;14.20;2.83;;;;;;;20.74;75.96;98031.84;5078057;28;20083;-77
2023/07/30 06:07:06;;;;;;;;;;;;;;;20.49;75.47;98032.94;5077325;28;20050;-77
2023/07/30 06:09:50;;;;;;;5.90;2.55;;;;;;;20.55;75.14;98034.47;5078212;28;19919;-76
2023/07/30 06:12:34;;;;;;;13.00;2.72;;;;;;;20.65;74.60;98029.00;5080519;28;20038;-77
2023/07/30 06:15:18;;;;;;;6.10;2.17;;;;;;;20.61;74.62;98029.88;5074826;28;20498;-76
2023/07/30 06:18:03;;;;;;;6.05;2.53;;;;;;;20.56;75.36;98036.03;5075918;28;20063;-76
2023/07/30 06:20:47;;;;;;;8.80;2.20;;;;;;;20.64;74.79;98043.44;5075994;28;20038;-77
2023/07/30 06:23:31;;;;;;;5.65;2.22;;;;;;;20.46;75.21;98054.84;5082211;28;20047;-76
2023/07/30 06:26:15;;;;;;;8.05;2.03;;;;;;;20.92;74.43;98046.28;5079645;28;20048;-77
2023/07/30 06:28:59;;;;;;;7.88;2.65;;;;;;;20.77;73.77;98057.94;5077369;28;20059;-77
2023/07/30 06:31:43;;;;;;;7.32;2.30;;;;;;;21.21;73.99;98056.03;5082040;28;20409;-77
2023/07/30 06:34:26;;;;;;;14.57;2.67;;;;;;;20.46;74.69;98057.50;5081088;28;20028;-77
2023/07/30 06:37:10;;;;;;;11.35;2.85;;;;;;;20.24;76.46;98058.78;5079030;28;20046;-77
2023/07/30 06:39:54;;;;;;;8.60;2.15;;;;;;;20.80;75.73;98062.72;5083137;28;20039;-77
2023/07/30 06:42:38;;;;;;;5.90;2.42;;;;;;;20.86;75.38;98065.31;5078634;28;20143;-74
2023/07/30 06:45:22;;;;;;;10.32;2.58;;;;;;;21.24;74.39;98076.81;5078902;28;20075;-76
2023/07/30 06:48:06;;;;;;;5.45;2.20;;;;;;;20.92;75.01;98075.63;5080632;28;20060;-76
2023/07/30 06:50:50;;;;;;;10.80;2.63;;;;;;;20.71;75.44;98082.28;5077232;28;20043;-77
2023/07/30 06:53:34;;;;;;;6.22;2.30;;;;;;;20.61;75.37;98075.19;5082239;28;20075;-76
2023/07/30 06:56:18;;;;;;;8.88;2.55;;;;;;;20.37;75.76;98071.44;5079438;28;20093;-76
2023/07/30 06:59:03;;;;;;;8.60;2.22;;;;;;;20.57;75.84;98069.63;5083219;28;20044;-76
2023/07/30 07:01:47;;;;;;;10.77;2.63;;;;;;;21.31;75.49;98079.09;5080810;28;20509;-77
2023/07/30 07:04:31;;;;;;;8.95;2.40;;;;;;;21.22;75.39;98084.31;5077972;28;20058;-78
2023/07/30 07:07:15;;;;;;;6.45;2.40;;;;;;;21.08;74.59;98076.22;5079903;28;20058;-77
2023/07/30 07:09:58;;;;;;;6.95;2.00;;;;;;;21.52;73.46;98082.28;5078016;28;20103;-77
2023/07/30 07:12:42;;;;;;;6.05;2.25;;;;;;;21.91;72.55;98080.38;5077289;28;20524;-77
2023/07/30 07:15:26;;;;;;;6.93;2.33;;;;;;;21.63;73.42;98082.13;5074036;28;20169;-78
2023/07/30 07:18:11;;;;;;;5.65;2.33;;;;;;;21.78;73.00;98095.25;5077806;28;20534;-76
2023/07/30 07:20:55;;;;;;;7.80;2.40;;;;;;;21.34;72.91;98101.75;5075870;28;20067;-76
2023/07/30 07:23:39;;;;;;;7.28;2.55;;;;;;;21.28;73.40;98101.03;5071385;28;20108;-77
2023/07/30 07:26:23;;;;;;;6.00;2.50;;;;;;;21.83;72.98;98099.72;5083392;28;20119;-77
2023/07/30 07:29:07;;;;;;;7.85;2.90;;;;;;;21.76;72.10;98113.44;5076449;28;20152;-77
2023/07/30 07:31:50;;;;;;;9.32;3.03;;;;;;;21.78;72.73;98097.13;5074799;28;20090;-78
2023/07/30 07:34:34;;;;;;;7.63;2.53;;;;;;;21.72;72.33;98088.41;5077114;28;20086;-77
2023/07/30 07:37:18;;;;;;;9.15;2.67;;;;;;;22.06;72.08;98106.03;5074006;28;20279;-77
2023/07/30 07:40:03;;;;;;;7.03;2.72;;;;;;;21.49;72.69;98109.56;5079702;28;20054;-78
2023/07/30 07:42:47;;;;;;;7.28;2.83;;;;;;;21.58;73.17;98111.56;5079424;28;20524;-75
2023/07/30 07:45:31;;;;;;;8.07;2.70;;;;;;;22.07;72.01;98109.47;5077569;28;20090;-75
2023/07/30 07:48:15;;;;;;;4.22;2.40;;;;;;;22.33;71.23;98111.72;5076825;28;20062;-75
2023/07/30 07:50:59;;;;;;;6.80;2.63;;;;;;;22.40;71.76;98125.47;5073837;28;20449;-75
2023/07/30 07:53:43;;;;;;;6.38;2.30;;;;;;;23.16;71.88;98118.16;5075912;28;20093;-75
2023/07/30 07:56:27;;;;;;;6.07;2.55;;;;;;;22.33;72.03;98122.41;5075069;28;20040;-75
2023/07/30 07:59:11;;;;;;;8.02;2.63;;;;;;;21.64;72.67;98115.75;5079833;28;20694;-75
2023/07/30 08:01:55;;;;;;;5.50;2.33;;;;;;;21.93;73.60;98122.81;5078883;28;20035;-77
2023/07/30 08:04:39;;;;;;;4.32;2.75;;;;;;;21.93;72.37;98128.16;5076942;28;20051;-74
2023/07/30 08:07:23;;;;;;;5.25;2.65;;;;;;;22.17;71.50;98148.59;5071593;28;20102;-78
2023/07/30 08:10:07;;;;;;;5.53;2.53;;;;;;;22.67;71.14;98146.13;5079294;28;20039;-76
2023/07/30 08:12:52;;;;;;;8.40;2.50;;;;;;;22.88;70.17;98145.75;5081430;28;20081;-75
2023/07/30 08:15:36;;;;;;;9.23;2.20;;;;;;;23.08;69.02;98144.53;5072758;28;20531;-76
2023/07/30 08:18:20;;;;;;;8.73;2.88;;;;;;;22.39;71.59;98143.38;5074546;28;20105;-76
2023/07/30 08:21:04;;;;;;;7.53;2.67;;;;;;;22.15;72.52;98151.56;5079236;28;20038;-78
2023/07/30 08:23:48;;;;;;;8.18;3.08;;;;;;;22.54;72.64;98133.53;5082156;28;20551;-77
2023/07/30 08:26:32;;;;;;;6.30;2.50;;;;;;;22.03;71.94;98136.00;5079398;28;20047;-74
2023/07/30 08:29:16;;;;;;;7.35;3.33;;;;;;;21.82;71.43;98133.66;5076770;28;20027;-75
2023/07/30 08:32:01;;;;;;;6.25;2.60;;;;;;;21.68;72.11;98138.16;5075282;28;20128;-75
2023/07/30 08:34:48;;;;;;;7.10;2.60;;;;;;;22.20;70.96;98137.31;5080885;28;20509;-75
2023/07/30 08:37:31;;;;;;;7.43;2.42;;;;;;;22.67;70.05;98139.97;5076600;28;20031;-76
2023/07/30 08:40:16;;;;;;;5.50;2.35;;;;;;;23.19;69.08;98149.69;5080495;28;20141;-76
2023/07/30 08:43:02;;;;;;;5.65;2.30;;;;;;;23.10;68.65;98152.25;5078305;28;20050;-75
2023/07/30 08:45:46;;;;;;;6.80;2.42;;;;;;;23.32;68.39;98148.09;5076692;28;20085;-75
2023/07/30 08:48:30;;;;;;;5.97;2.50;;;;;;;23.14;69.25;98137.19;5075791;28;20428;-75
2023/07/30 08:51:15;;;;;;;11.20;2.72;;;;;;;23.00;69.15;98152.50;5078831;28;20482;-75
2023/07/30 08:54:00;;;;;;;6.88;2.33;;;;;;;23.87;68.51;98168.53;5071416;28;20043;-75
2023/07/30 08:56:45;;;;;;;5.63;2.47;;;;;;;23.44;67.89;98167.13;5076697;28;20051;-75
2023/07/30 08:59:42;;;;;;;5.20;2.00;;;;;;;23.66;68.06;98166.34;5072342;28;20097;-76
2023/07/30 09:02:37;;;;;;;5.50;2.10;;;;;;;23.56;68.58;98168.47;5069692;28;20063;-77
2023/07/30 09:05:22;;;;;;;3.13;2.20;;;;;;;23.39;68.90;98175.28;5079034;28;20059;-81
2023/07/30 09:08:07;;;;;;;8.40;2.50;;;;;;;23.28;69.14;98168.53;5078485;28;20051;-82
2023/07/30 09:10:51;;;;;;;6.95;2.55;;;;;;;23.03;72.33;98167.94;5081226;28;20036;-81
2023/07/30 09:13:39;;;;;;;8.57;2.42;;;;;;;23.11;73.31;98175.25;5079091;28;20039;-81
2023/07/30 09:16:27;;;;;;;7.05;2.70;;;;;;;23.39;73.12;98176.03;5082888;28;20102;-81
2023/07/30 09:19:16;;;;;;;6.22;2.30;;;;;;;23.80;71.76;98163.63;5082228;28;20050;-81
2023/07/30 09:22:07;;;;;;;5.28;2.97;;;;;;;23.78;71.42;98181.09;5075911;28;20044;-81
2023/07/30 09:24:51;;;;;;;4.57;2.88;;;;;;;23.73;73.47;98178.53;5082207;28;20129;-81
2023/07/30 09:27:35;;;;;;;7.05;3.00;;;;;;;23.35;74.05;98187.66;5081601;28;20047;-81
2023/07/30 09:30:23;;;;;;;5.18;2.38;;;;;;;24.20;76.11;98186.31;5085684;28;20489;-81
2023/07/30 09:33:08;;;;;;;9.25;2.38;;;;;;;24.45;76.11;98176.81;5084782;28;20132;-82
2023/07/30 09:35:53;;;;;;;10.18;2.35;;;;;;;24.38;73.61;98176.47;5085503;28;20047;-82
2023/07/30 09:38:39;;;;;;;4.22;1.85;;;;;;;24.98;72.48;98178.97;5082115;28;20085;-82
2023/07/30 09:41:23;;;;;;;6.13;2.13;;;;;;;24.85;72.90;98177.97;5083698;28;20047;-81
2023/07/30 09:44:07;;;;;;;4.72;1.98;;;;;;;25.06;71.07;98188.94;5078567;28;20450;-81
2023/07/30 09:46:51;;;;;;;4.80;1.77;;;;;;;25.14;71.08;98185.47;5085594;28;20097;-82
2023/07/30 09:49:38;;;;;;;7.45;2.55;;;;;;;25.28;70.05;98180.00;5085857;28;20042;-82
2023/07/30 09:52:23;;;;;;;6.75;2.10;;;;;;;25.12;68.93;98192.28;5084466;28;20119;-81
2023/07/30 09:55:07;;;;;;;3.60;1.80;;;;;;;24.67;69.40;98204.72;5082731;28;20393;-82
2023/07/30 09:57:51;;;;;;;2.63;1.70;;;;;;;24.63;68.85;98195.69;5087000;28;20055;-81
2023/07/30 10:00:35;;;;;;;7.20;1.70;;;;;;;25.19;67.91;98188.03;5079767;28;20048;-82
2023/07/30 10:03:20;;;;;;;3.80;1.50;;;;;;;24.49;67.79;98191.22;5082715;28;20124;-81
2023/07/30 10:06:07;;;;;;;5.80;2.03;;;;;;;24.91;66.12;98201.69;5083262;28;20071;-82
2023/07/30 10:08:54;;;;;;;3.22;1.50;;;;;;;24.35;65.12;98199.31;5081863;28;20119;-81
2023/07/30 10:11:41;;;;;;;4.35;1.90;;;;;;;24.54;64.90;98195.66;5079629;28;20043;-81
2023/07/30 10:14:25;;;;;;;4.78;2.20;;;;;;;24.51;65.50;98194.38;5082562;28;20042;-82
2023/07/30 10:17:11;;;;;;;3.17;1.63;;;;;;;24.76;64.58;98194.84;5083203;28;20046;-81
2023/07/30 10:19:55;;;;;;;4.75;1.70;;;;;;;25.32;63.57;98199.75;5084158;28;20039;-82
2023/07/30 10:22:39;;;;;;;4.93;1.80;;;;;;;25.39;63.37;98196.59;5086227;28;20561;-81
2023/07/30 10:25:42;;;;;;;4.30;1.70;;;;;;;25.00;63.27;98199.03;5082884;28;20058;-80
2023/07/30 10:28:29;;;;;;;3.55;1.58;;;;;;;25.17;61.22;98209.03;5080164;28;20090;-81
2023/07/30 10:31:13;;;;;;;6.32;1.70;;;;;;;25.43;61.47;98213.66;5080326;28;20120;-80
2023/07/30 10:33:57;;;;;;;3.03;1.98;;;;;;;25.17;61.94;98214.41;5082620;28;20044;-82
2023/07/30 10:36:46;;;;;;;3.80;1.40;;;;;;;24.86;63.34;98207.19;5083686;28;20047;-81
2023/07/30 10:39:30;;;;;;;4.80;1.75;;;;;;;25.95;62.09;98212.16;5080204;28;20074;-81
2023/07/30 10:42:14;;;;;;;4.72;1.80;;;;;;;25.99;61.54;98205.03;5080356;28;20382;-82
2023/07/30 10:44:59;;;;;;;3.90;1.83;;;;;;;26.15;59.19;98204.53;5081794;28;20042;-82
2023/07/30 10:47:44;;;;;;;3.35;1.52;;;;;;;26.46;59.36;98193.59;5084168;28;20051;-82
2023/07/30 10:50:28;;;;;;;3.88;1.60;;;;;;;27.00;58.13;98197.66;5081269;28;20042;-82
2023/07/30 10:53:12;;;;;;;2.08;1.30;;;;;;;26.25;57.40;98198.84;5083708;28;20051;-81
2023/07/30 10:56:03;;;;;;;1.73;1.15;;;;;;;26.82;58.06;98194.25;5085439;28;20547;-82
2023/07/30 10:58:54;;;;;;;3.30;2.15;;;;;;;25.66;57.14;98194.75;5082635;28;20034;-81
2023/07/30 11:01:40;;;;;;;1.75;1.40;;;;;;;26.02;56.85;98214.34;5083188;28;20495;-82
2023/07/30 11:04:27;;;;;;;2.67;1.70;;;;;;;25.38;57.67;98211.91;5079753;28;20055;-82
2023/07/30 11:07:17;;;;;;;2.53;1.40;;;;;;;25.73;57.55;98211.19;5082030;28;20409;-81
2023/07/30 11:10:01;;;;;;;2.38;1.60;;;;;;;26.37;57.64;98217.00;5077769;28;20059;-82
2023/07/30 11:12:49;;;;;;;4.32;1.55;;;;;;;26.57;57.08;98207.47;5076750;28;20036;-80
2023/07/30 11:15:40;;;;;;;5.50;1.90;;;;;;;27.16;56.84;98219.47;5084727;28;20093;-81
2023/07/30 11:18:24;;;;;;;2.58;1.65;;;;;;;27.75;56.11;98217.84;5079417;28;20038;-81
2023/07/30 11:21:09;;;;;;;4.50;1.65;;;;;;;26.38;56.60;98219.41;5080737;28;20394;-81
2023/07/30 11:23:54;;;;;;;2.92;1.65;;;;;;;25.91;56.71;98224.63;5080707;28;20047;-81
2023/07/30 11:26:38;;;;;;;2.65;1.50;;;;;;;26.12;56.91;98232.84;5081099;28;20039;-81
2023/07/30 11:29:22;;;;;;;3.85;1.30;;;;;;;26.84;57.10;98227.00;5074794;28;20115;-82
2023/07/30 11:32:06;;;;;;;3.88;1.60;;;;;;;26.03;56.42;98249.00;5083016;28;20120;-82
2023/07/30 11:34:50;;;;;;;2.92;1.55;;;;;;;25.88;57.47;98239.50;5082427;28;20635;-81
2023/07/30 11:37:39;;;;;;;3.35;1.50;;;;;;;26.60;56.71;98225.66;5085458;28;20067;-82
2023/07/30 11:40:24;;;;;;;3.67;1.38;;;;;;;26.54;56.62;98232.34;5081124;28;20461;-81
2023/07/30 11:43:08;;;;;;;2.72;1.63;;;;;;;26.52;57.53;98218.41;5079037;28;20116;-82
2023/07/30 11:46:13;;;;;;;4.20;1.70;;;;;;;26.48;57.81;98225.53;5079957;28;20051;-84
2023/07/30 11:49:13;;;;;;;3.65;1.58;;;;;;;26.74;57.19;98220.09;5082501;28;20051;-82
2023/07/30 11:52:10;;;;;;;5.05;1.35;;;;;;;27.17;56.50;98221.03;5080010;28;20885;-81
2023/07/30 11:55:02;;;;;;;2.25;1.42;;;;;;;26.59;56.56;98225.97;5079175;28;20105;-81
2023/07/30 11:57:47;;;;;;;1.98;1.45;;;;;;;25.86;57.30;98227.47;5080646;28;20044;-81
2023/07/30 12:00:33;;;;;;;2.80;1.45;;;;;;;26.39;58.66;98214.78;5078765;28;20154;-82
2023/07/30 12:03:17;;;;;;;2.17;1.40;;;;;;;26.23;57.64;98230.66;5080496;28;20080;-83
2023/07/30 12:06:05;;;;;;;5.78;1.80;;;;;;;26.20;57.57;98242.06;5081862;28;20398;-82
2023/07/30 12:08:50;;;;;;;4.05;1.50;;;;;;;25.71;58.50;98229.53;5082423;28;20067;-82
2023/07/30 12:11:34;;;;;;;3.05;1.60;;;;;;;25.65;58.55;98228.91;5078308;28;20093;-82
2023/07/30 12:14:21;;;;;;;3.42;1.65;;;;;;;25.99;57.52;98237.28;5080948;28;20047;-80
2023/07/30 12:17:05;;;;;;;1.65;1.40;;;;;;;26.76;55.76;98238.63;5082562;28;20062;-82
2023/07/30 12:19:49;;;;;;;4.00;1.50;;;;;;;25.92;57.01;98235.06;5073264;28;20410;-81
2023/07/30 12:22:35;;;;;;;1.55;1.27;;;;;;;25.52;57.77;98235.97;5079443;28;20042;-82
2023/07/30 12:25:19;;;;;;;2.22;1.40;;;;;;;25.69;56.94;98231.75;5084081;28;20540;-81
2023/07/30 12:28:03;;;;;;;5.68;1.88;;;;;;;25.95;56.97;98234.44;5081327;28;20043;-82
2023/07/30 12:30:47;;;;;;;3.90;1.65;;;;;;;26.93;55.93;98222.41;5080057;28;20038;-82
2023/07/30 12:33:31;;;;;;;2.67;1.25;;;;;;;26.78;56.23;98231.00;5081164;28;20140;-82
2023/07/30 12:36:15;;;;;;;3.75;2.13;;;;;;;26.69;56.99;98230.22;5082199;28;20166;-82
2023/07/30 12:38:59;;;;;;;2.10;1.45;;;;;;;27.30;55.55;98224.59;5081223;28;20043;-82
2023/07/30 12:41:43;;;;;;;3.35;1.40;;;;;;;26.81;56.29;98231.13;5080129;28;20074;-82
2023/07/30 12:44:27;;;;;;;2.28;1.50;;;;;;;26.26;56.71;98231.94;5078737;28;20043;-82
2023/07/30 12:47:11;;;;;;;4.68;1.73;;;;;;;26.84;56.53;98227.00;5076746;28;20101;-82
2023/07/30 12:49:55;;;;;;;4.82;1.77;;;;;;;26.73;55.79;98241.94;5082444;28;20059;-82
2023/07/30 12:52:39;;;;;;;2.35;1.20;;;;;;;26.51;55.47;98232.97;5080852;28;20059;-83
2023/07/30 12:55:23;;;;;;;4.00;1.50;;;;;;;26.71;54.39;98241.47;5079938;28;20652;-80